Easterwood Field
KCLL : now visible

Airfield :











YOU CAN JOIN US ON...

 
LOGIN :

Register | Disclaimer

   EN    FR    IT 

 









Legend :    VFR   Marginal VFR   IFR   Intensive IFR   Very Intensive IFR
Visi :
Ceiling :
>= 8 km
>= 3000ft
5 to 8 km
1000 to 3000 ft
1500m to 5 km
500 to 1000 ft
800 to 1500m
200 to 500 ft
< 800m
< 200 ft
Symbols :   Thunderstorms  Fog  Heavy snow  Heavy precipitations  Wind > 20 kt






- Airport Elevation : 320 ft
- IATA code : CLL


KCLL - Easterwood Field

CURRENT METAR :
  • 250553Z AUTO 16010KT 10SM CLR 27/24 A2980 RMK AO2 SLP087 60000 T02720239 10322 20272 403440261 50021

EXPIRED METARs :
  • 250453Z AUTO 14007KT 10SM CLR 27/23 A2981 RMK AO2 SLP088 T02720233
  • 250353Z AUTO 15013KT 10SM CLR 28/23 A2979 RMK AO2 SLP081 T02830228
  • 250253Z AUTO 13012G21KT 10SM FEW080 29/24 A2974 RMK AO2 RAB25E34 SLP065 P0000 60000 T02890239 51015
  • 250153Z AUTO 15011KT 10SM CLR 29/24 A2972 RMK AO2 SLP058 T02940244

TAF KCLL
Valid from the 25 at 06:00 until the 26 at 06:00 UTC


250520Z 2506/2606 15010KT P6SM SCT020
FM250900 15007KT P6SM BKN015
FM251500 17010KT P6SM BKN025
FM251800 16014G22KT P6SM SCT035
FM260100 15013G20KT P6SM SCT250
KZHU FIR / North America



MET'MAP, your aeronautical weather chart ! - Copyright ORBIFLY December 2007 - Disclaimer

ORBIFLY MET'MAP TEAM :

Programming & Development : Alexandra Zaïnal
Original concept : Baudouin d'Aumeries
Technical & hardware support : Manuel Goepfert
Assistance : Marc-Olivier Méhu




SOURCES & CREDITS :

   NOAA       Earth
Advisory